Time;durP1;ratioP1;P1;durP2;ratioP2;P2;SDS_P1;SDS_P2;PMS_P1;PMS_P2;Temp;Humidity;BMP_temperature;BMP_pressure;BME280_temperature;BME280_humidity;BME280_pressure;Samples;Min_cycle;Max_cycle;Signal;HPM_P1;HPM_P2
2022/06/25 00:03:32;;;;;;;1.63;1.23;;;;;;;18.72;79.87;99892.16;10408268;28;20258;-83
2022/06/25 00:08:36;;;;;;;4.78;1.25;;;;;;;18.68;79.80;99899.78;10415529;28;20196;-84
2022/06/25 00:13:39;;;;;;;5.10;1.08;;;;;;;18.65;79.38;99906.16;10437829;28;21118;-84
2022/06/25 00:18:41;;;;;;;2.17;0.90;;;;;;;18.60;79.41;99909.28;10398674;28;20197;-84
2022/06/25 00:23:44;;;;;;;1.83;0.90;;;;;;;18.59;79.07;99919.78;10380228;28;20570;-85
2022/06/25 00:28:46;;;;;;;1.75;1.38;;;;;;;18.57;79.13;99916.47;10383345;28;20663;-87
2022/06/25 00:33:49;;;;;;;2.53;1.15;;;;;;;18.43;79.03;99920.97;10372500;28;20716;-84
2022/06/25 00:38:51;;;;;;;7.13;1.10;;;;;;;18.46;79.27;99929.56;10397807;28;20201;-85
2022/06/25 00:43:54;;;;;;;3.22;0.82;;;;;;;18.44;79.12;99925.44;10379768;28;20196;-84
2022/06/25 00:48:56;;;;;;;5.70;1.00;;;;;;;18.37;78.82;99926.09;10396435;28;20258;-83
2022/06/25 00:54:03;;;;;;;2.63;1.27;;;;;;;18.45;78.43;99929.91;10371173;28;20236;-85
2022/06/25 00:59:06;;;;;;;2.85;0.85;;;;;;;18.49;77.78;99937.31;10371706;28;20244;-84
2022/06/25 01:04:09;;;;;;;2.53;0.93;;;;;;;18.56;77.59;99939.50;10371247;28;20283;-85
2022/06/25 01:09:11;;;;;;;5.18;0.95;;;;;;;18.41;77.81;99941.16;10416544;28;20278;-86
2022/06/25 01:14:14;;;;;;;4.40;1.27;;;;;;;18.34;78.36;99947.44;10413116;28;20205;-86
2022/06/25 01:19:17;;;;;;;3.13;1.48;;;;;;;18.29;79.41;99949.75;10395569;28;20196;-85
2022/06/25 01:24:20;;;;;;;1.75;1.20;;;;;;;18.27;79.64;99961.41;10413819;28;20200;-85
2022/06/25 01:29:22;;;;;;;2.00;1.35;;;;;;;18.27;80.16;99958.59;10394657;28;20201;-84
2022/06/25 01:34:24;;;;;;;2.57;1.40;;;;;;;18.34;79.90;99957.94;10410735;28;20205;-84
2022/06/25 01:39:27;;;;;;;4.77;1.60;;;;;;;18.35;79.82;99966.06;10411300;28;20238;-86
2022/06/25 01:44:29;;;;;;;2.58;1.23;;;;;;;18.35;80.13;99971.75;10393763;28;20537;-86
2022/06/25 01:49:32;;;;;;;3.60;1.60;;;;;;;18.33;80.57;99973.28;10427349;28;20605;-84
2022/06/25 01:54:34;;;;;;;3.38;1.33;;;;;;;18.21;80.80;99988.31;10410899;28;20678;-84
2022/06/25 01:59:37;;;;;;;3.35;1.40;;;;;;;18.26;80.81;99990.09;10410145;28;20254;-84
2022/06/25 02:04:39;;;;;;;2.80;1.50;;;;;;;18.16;81.16;99985.72;10399692;28;20213;-83
2022/06/25 02:09:42;;;;;;;3.45;1.60;;;;;;;18.08;81.68;99988.72;10417312;28;20560;-85
2022/06/25 02:14:44;;;;;;;2.53;1.60;;;;;;;18.06;82.00;99986.25;10384366;28;20242;-85
2022/06/25 02:19:46;;;;;;;5.22;1.55;;;;;;;18.15;81.77;99989.75;10434691;28;20188;-84
2022/06/25 02:24:50;;;;;;;4.35;1.52;;;;;;;18.00;82.33;99996.19;10385060;28;20231;-87
2022/06/25 02:29:52;;;;;;;3.83;1.80;;;;;;;18.00;81.96;99999.03;10417339;28;20246;-84
2022/06/25 02:34:54;;;;;;;1.63;1.33;;;;;;;18.04;81.90;99994.28;10417251;28;20209;-83
2022/06/25 02:39:57;;;;;;;3.25;1.58;;;;;;;17.94;82.12;99997.63;10417067;28;20238;-83
2022/06/25 02:45:01;;;;;;;3.67;1.30;;;;;;;17.88;82.39;100011.22;10400104;28;20193;-85
2022/06/25 02:50:04;;;;;;;3.15;1.52;;;;;;;17.83;82.84;100013.47;10400409;28;20532;-84
2022/06/25 02:55:07;;;;;;;1.63;1.52;;;;;;;17.75;83.20;100022.94;10421851;28;20213;-85
2022/06/25 03:00:17;;;;;;;4.75;2.00;;;;;;;17.64;83.28;100026.22;10411617;28;20238;-83
2022/06/25 03:05:19;;;;;;;4.07;1.60;;;;;;;17.71;82.87;100024.81;10402371;28;20619;-87
2022/06/25 03:10:22;;;;;;;5.00;1.65;;;;;;;17.60;83.06;100024.50;10401518;28;20233;-85
2022/06/25 03:15:25;;;;;;;4.65;1.65;;;;;;;17.75;82.52;100032.22;10407528;28;20273;-85
2022/06/25 03:20:29;;;;;;;1.95;1.70;;;;;;;17.73;82.50;100045.06;10402213;28;20238;-84
2022/06/25 03:25:34;;;;;;;2.00;1.90;;;;;;;17.69;82.85;100051.44;10419390;28;20671;-83
2022/06/25 03:30:40;;;;;;;2.50;1.70;;;;;;;17.68;82.85;100046.97;10416793;28;20212;-85
2022/06/25 03:35:44;;;;;;;2.45;1.25;;;;;;;17.62;82.92;100056.88;10403946;28;20243;-84
2022/06/25 03:46:25;;;;;;;2.17;1.45;;;;;;;17.54;83.09;100052.16;10432401;28;20191;-85
2022/06/25 03:51:27;;;;;;;4.53;1.13;;;;;;;17.52;83.03;100046.03;10417690;28;20193;-85
2022/06/25 03:56:30;;;;;;;2.50;1.55;;;;;;;17.60;83.09;100050.75;10417335;28;20208;-85
2022/06/25 04:01:34;;;;;;;2.95;1.30;;;;;;;17.64;82.76;100043.19;10408684;28;20258;-85
2022/06/25 04:06:37;;;;;;;1.52;1.42;;;;;;;17.64;82.67;100043.19;10409287;28;20221;-84
2022/06/25 04:11:39;;;;;;;3.47;1.35;;;;;;;17.60;82.99;100047.94;10397648;28;20652;-84
2022/06/25 04:16:42;;;;;;;3.05;1.65;;;;;;;17.67;82.54;100042.47;10400570;28;20217;-83
2022/06/25 04:21:49;;;;;;;2.63;1.10;;;;;;;17.68;82.68;100049.78;10406996;28;20221;-84
2022/06/25 04:26:51;;;;;;;2.13;1.15;;;;;;;17.70;82.69;100060.75;10380740;28;20189;-84
2022/06/25 04:31:54;;;;;;;2.13;1.40;;;;;;;17.72;82.74;100066.06;10381810;28;20258;-86
2022/06/25 04:37:24;;;;;;;6.18;1.60;;;;;;;17.71;82.26;100064.41;10400366;28;20267;-86
2022/06/25 04:42:27;;;;;;;1.70;1.47;;;;;;;17.80;82.04;100082.88;10415664;28;20200;-84
2022/06/25 04:47:30;;;;;;;3.65;1.50;;;;;;;17.75;81.27;100079.47;10381659;28;20262;-85
2022/06/25 04:52:53;;;;;;;3.22;1.30;;;;;;;17.83;81.02;100081.34;10413865;28;20544;-85
2022/06/25 04:57:55;;;;;;;4.80;1.50;;;;;;;17.88;81.24;100086.75;10402344;28;20208;-84
2022/06/25 05:03:21;;;;;;;1.42;1.15;;;;;;;17.98;81.04;100092.75;10402751;28;20209;-84
2022/06/25 05:08:42;;;;;;;4.65;1.60;;;;;;;17.87;81.40;100102.09;10427446;28;20585;-84
2022/06/25 05:13:48;;;;;;;3.42;1.73;;;;;;;17.88;80.77;100101.72;10412488;28;20224;-85
2022/06/25 05:18:52;;;;;;;3.58;1.45;;;;;;;18.18;80.57;100107.03;10395129;28;20228;-84
2022/06/25 05:23:54;;;;;;;4.65;1.60;;;;;;;18.12;80.40;100114.97;10393429;28;20192;-84
2022/06/25 05:28:57;;;;;;;4.90;1.40;;;;;;;18.23;80.10;100109.66;10388593;28;20453;-84
2022/06/25 05:34:00;;;;;;;2.13;1.17;;;;;;;18.24;79.67;100105.66;10414011;28;20529;-85
2022/06/25 05:39:02;;;;;;;2.55;1.45;;;;;;;18.34;79.33;100111.63;10388181;28;20232;-85
2022/06/25 05:44:06;;;;;;;2.45;1.40;;;;;;;18.34;78.87;100113.63;10435001;28;20215;-85
2022/06/25 05:49:08;;;;;;;1.10;1.00;;;;;;;18.51;78.91;100121.81;10431045;28;20253;-85
2022/06/25 05:54:10;;;;;;;2.85;1.40;;;;;;;18.41;78.99;100127.19;10422565;28;20199;-84
2022/06/25 05:59:13;;;;;;;2.88;1.38;;;;;;;18.44;78.56;100132.09;10444047;28;20188;-85
2022/06/25 06:04:15;;;;;;;3.72;1.52;;;;;;;18.75;77.95;100140.69;10383273;28;20228;-85
2022/06/25 06:09:18;;;;;;;1.60;1.25;;;;;;;18.86;77.12;100133.31;10421373;28;20246;-84
2022/06/25 06:14:22;;;;;;;4.72;1.77;;;;;;;18.85;76.96;100137.34;10389397;28;20267;-83
2022/06/25 06:19:24;;;;;;;3.38;1.70;;;;;;;18.98;76.33;100147.41;10373750;28;20198;-85
2022/06/25 06:24:27;;;;;;;4.82;1.75;;;;;;;18.96;76.31;100148.94;10362923;28;20196;-84
2022/06/25 06:29:29;;;;;;;3.58;2.03;;;;;;;19.09;75.00;100145.72;10397675;28;22207;-85
2022/06/25 06:34:32;;;;;;;3.10;1.92;;;;;;;19.28;76.46;100155.53;10394327;28;20236;-85
2022/06/25 06:39:34;;;;;;;3.55;2.10;;;;;;;19.30;75.76;100153.97;10406720;28;20201;-86
2022/06/25 06:44:36;;;;;;;2.45;1.30;;;;;;;19.50;74.60;100163.38;10408914;28;20201;-85
2022/06/25 06:49:39;;;;;;;4.72;1.73;;;;;;;19.53;73.65;100161.81;10404515;28;20201;-85
2022/06/25 06:54:41;;;;;;;2.35;1.55;;;;;;;19.36;73.39;100171.53;10435689;28;20266;-83
2022/06/25 06:59:44;;;;;;;3.53;1.35;;;;;;;19.55;73.79;100174.47;10399598;28;20197;-89
2022/06/25 07:04:47;;;;;;;2.28;1.45;;;;;;;19.80;71.84;100166.59;10372830;28;20569;-89
2022/06/25 07:09:49;;;;;;;2.00;1.60;;;;;;;19.89;70.79;100164.38;10391940;28;20220;-88
2022/06/25 07:14:52;;;;;;;2.00;1.30;;;;;;;20.12;69.62;100158.81;10404134;28;20212;-87
2022/06/25 07:19:54;;;;;;;1.77;1.67;;;;;;;20.32;68.33;100171.03;10402081;28;20239;-87
2022/06/25 07:24:57;;;;;;;2.08;1.17;;;;;;;20.57;66.25;100168.75;10387334;28;20197;-89
2022/06/25 07:30:00;;;;;;;3.10;1.30;;;;;;;20.70;65.58;100175.94;10401362;28;20209;-92
2022/06/25 07:35:02;;;;;;;2.63;1.52;;;;;;;20.99;66.70;100165.97;10390274;28;20216;-89
2022/06/25 07:40:05;;;;;;;4.28;1.83;;;;;;;20.92;65.71;100160.94;10415939;28;20192;-91
2022/06/25 07:45:09;;;;;;;2.58;1.33;;;;;;;21.35;63.74;100173.16;10402961;28;20196;-88
2022/06/25 07:55:35;;;;;;;3.85;1.30;;;;;;;21.72;62.68;100168.50;10297476;28;20224;-86
2022/06/25 08:00:40;;;;;;;2.28;0.93;;;;;;;21.62;60.17;100160.63;10397225;28;20205;-90
2022/06/25 08:05:42;;;;;;;3.28;1.20;;;;;;;21.60;60.90;100162.19;10412329;28;20315;-89
2022/06/25 08:10:45;;;;;;;3.42;1.13;;;;;;;22.11;59.97;100159.78;10380246;28;20225;-86
2022/06/25 08:15:55;;;;;;;6.53;3.17;;;;;;;21.93;60.18;100157.47;10387274;28;20261;-84
2022/06/25 08:20:58;;;;;;;2.10;1.20;;;;;;;21.99;56.78;100165.72;10450845;28;20226;-83
2022/06/25 08:26:08;;;;;;;3.63;1.00;;;;;;;22.06;57.06;100168.66;10489261;28;20724;-86
2022/06/25 08:31:14;;;;;;;4.78;1.35;;;;;;;22.12;56.73;100167.13;10467615;28;20214;-85
2022/06/25 08:36:16;;;;;;;2.05;1.15;;;;;;;21.96;54.65;100172.97;10473083;28;20235;-83
2022/06/25 08:41:19;;;;;;;2.40;0.65;;;;;;;22.06;53.90;100160.94;10454956;28;20250;-85
2022/06/25 08:46:22;;;;;;;2.50;1.00;;;;;;;22.37;53.69;100151.19;10451272;28;20277;-84
2022/06/25 08:51:29;;;;;;;4.30;0.85;;;;;;;22.62;52.05;100155.22;10441180;28;20227;-87
2022/06/25 08:56:32;;;;;;;4.82;0.80;;;;;;;22.76;53.74;100159.47;10448118;28;20274;-84
2022/06/25 09:01:36;;;;;;;2.95;0.73;;;;;;;22.86;51.89;100155.91;10419323;28;20230;-88
2022/06/25 09:06:40;;;;;;;2.53;0.90;;;;;;;22.98;52.32;100155.63;10446904;28;20220;-88
2022/06/25 09:11:52;;;;;;;1.52;0.73;;;;;;;22.93;51.24;100147.44;10452935;28;20220;-86
2022/06/25 09:16:59;;;;;;;4.75;0.75;;;;;;;22.91;48.56;100141.31;10449450;28;20275;-83
2022/06/25 09:22:07;;;;;;;1.75;0.70;;;;;;;23.57;48.42;100150.94;10416517;28;20254;-86
2022/06/25 09:27:11;;;;;;;2.60;0.63;;;;;;;23.41;48.32;100156.91;10450291;28;20321;-84
2022/06/25 09:32:14;;;;;;;1.48;0.85;;;;;;;23.17;48.38;100144.03;10429588;28;20192;-86
2022/06/25 09:37:26;;;;;;;3.42;0.90;;;;;;;23.56;47.16;100144.41;10449888;28;20259;-86
2022/06/25 09:42:32;;;;;;;1.58;0.60;;;;;;;24.07;47.11;100135.03;10445404;28;20497;-85
2022/06/25 09:47:43;;;;;;;4.30;0.70;;;;;;;23.68;47.64;100137.59;10448842;28;20219;-90
2022/06/25 09:52:55;;;;;;;5.07;0.82;;;;;;;23.59;48.30;100139.97;10435200;28;20282;-87
2022/06/25 09:58:03;;;;;;;2.90;1.05;;;;;;;23.86;48.17;100134.88;10457860;28;20493;-89
2022/06/25 10:03:08;;;;;;;2.60;0.85;;;;;;;23.13;49.74;100142.34;10431540;28;20208;-86
2022/06/25 10:08:13;;;;;;;0.55;0.50;;;;;;;23.49;48.39;100132.09;10432126;28;21012;-89
2022/06/25 10:13:15;;;;;;;3.70;0.82;;;;;;;24.07;45.52;100128.50;10432273;28;20215;-86
2022/06/25 10:18:19;;;;;;;2.42;0.50;;;;;;;23.92;44.08;100133.25;10432724;28;20235;-87
2022/06/25 10:23:22;;;;;;;1.67;0.63;;;;;;;23.82;42.87;100126.28;10460100;28;20199;-86
2022/06/25 10:28:28;;;;;;;5.60;0.40;;;;;;;24.27;44.21;100121.25;10430315;28;20885;-80
2022/06/25 10:33:57;;;;;;;5.55;1.05;;;;;;;24.17;43.71;100119.97;10445656;28;20261;-73
2022/06/25 10:39:23;;;;;;;3.50;0.57;;;;;;;24.60;42.60;100106.75;10427178;28;20313;-83
2022/06/25 10:44:26;;;;;;;3.08;1.17;;;;;;;25.14;41.77;100107.69;10447048;28;20500;-83
2022/06/25 10:49:30;;;;;;;1.42;0.40;;;;;;;25.27;41.01;100103.25;10462801;28;20218;-85
2022/06/25 10:54:34;;;;;;;3.42;0.68;;;;;;;25.43;41.43;100106.50;10449322;28;20204;-85
2022/06/25 10:59:39;;;;;;;3.67;0.90;;;;;;;25.96;39.67;100099.09;10441851;28;20240;-82
2022/06/25 11:04:56;;;;;;;2.63;0.43;;;;;;;25.67;41.11;100096.28;10446236;28;20247;-85
2022/06/25 11:10:01;;;;;;;5.00;1.88;;;;;;;25.83;38.35;100089.31;10439465;28;20626;-81
2022/06/25 11:15:08;;;;;;;2.50;1.40;;;;;;;25.89;37.29;100090.53;10431841;28;20227;-82
2022/06/25 11:20:12;;;;;;;2.30;0.85;;;;;;;25.78;37.47;100093.41;10453558;28;20243;-83
2022/06/25 11:30:35;;;;;;;3.40;0.50;;;;;;;25.81;36.47;100084.00;10452597;28;20281;-82
2022/06/25 11:35:42;;;;;;;3.05;0.88;;;;;;;26.13;36.70;100084.75;10470145;28;20281;-81
2022/06/25 11:40:45;;;;;;;2.97;0.68;;;;;;;25.63;37.50;100080.31;10448292;28;20219;-82
2022/06/25 11:45:55;;;;;;;2.05;0.70;;;;;;;25.79;38.00;100080.75;10464930;28;20196;-82
2022/06/25 11:51:02;;;;;;;6.03;1.02;;;;;;;25.64;37.17;100093.41;10451475;28;20199;-82
2022/06/25 11:56:07;;;;;;;2.55;0.85;;;;;;;25.49;40.19;100084.00;10436943;28;20239;-75
2022/06/25 12:01:10;;;;;;;1.63;0.70;;;;;;;25.19;42.60;100090.13;10456358;28;20188;-71
2022/06/25 12:06:12;;;;;;;2.83;0.93;;;;;;;25.16;40.46;100098.69;10452627;28;20243;-75
2022/06/25 12:11:15;;;;;;;2.83;0.90;;;;;;;25.69;39.75;100093.78;10452876;28;20242;-77
2022/06/25 12:16:17;;;;;;;3.45;0.90;;;;;;;25.56;40.58;100088.94;10454257;28;20251;-75
2022/06/25 12:21:20;;;;;;;1.58;0.50;;;;;;;25.64;40.10;100093.41;10450749;28;20207;-88
2022/06/25 12:26:33;;;;;;;6.05;0.70;;;;;;;25.34;40.92;100094.63;10429972;28;20224;-86
2022/06/25 12:31:36;;;;;;;0.75;0.50;;;;;;;26.13;38.29;100095.38;10452769;28;20203;-90
2022/06/25 12:36:40;;;;;;;1.42;0.50;;;;;;;26.67;36.42;100082.50;10453305;28;20226;-86
2022/06/25 12:41:48;;;;;;;1.85;0.80;;;;;;;25.80;37.54;100099.56;10433174;28;20253;-87
2022/06/25 12:47:08;;;;;;;2.03;0.70;;;;;;;25.35;41.87;100102.00;10479596;28;20188;-86
2022/06/25 12:52:13;;;;;;;1.75;0.50;;;;;;;25.17;39.31;100094.63;10444369;28;20199;-87
2022/06/25 12:57:28;;;;;;;1.13;0.60;;;;;;;25.67;39.97;100095.47;10399512;28;20223;-87
2022/06/25 13:02:31;;;;;;;3.20;0.82;;;;;;;25.32;42.19;100096.28;10450482;28;20204;-87
2022/06/25 13:07:35;;;;;;;4.30;1.17;;;;;;;25.42;41.76;100102.03;10454339;28;20211;-74
2022/06/25 13:12:39;;;;;;;3.90;1.30;;;;;;;25.06;43.05;100094.56;10444329;28;20274;-82
2022/06/25 13:17:41;;;;;;;1.52;0.85;;;;;;;25.12;44.52;100092.97;10446139;28;20247;-82
2022/06/25 13:22:44;;;;;;;3.03;0.90;;;;;;;25.50;41.07;100088.50;10445869;28;20221;-82
2022/06/25 13:27:46;;;;;;;5.90;1.15;;;;;;;25.83;39.15;100083.56;10413364;28;20227;-86
2022/06/25 13:32:49;;;;;;;2.10;0.90;;;;;;;25.88;38.65;100081.13;10430824;28;20196;-88
2022/06/25 13:37:51;;;;;;;4.35;1.00;;;;;;;25.64;39.39;100079.09;10454632;28;20272;-89
2022/06/25 13:42:54;;;;;;;2.13;0.47;;;;;;;25.50;39.33;100077.06;10446754;28;20196;-85
2022/06/25 13:47:58;;;;;;;3.63;0.93;;;;;;;25.61;40.05;100088.50;10468552;28;20180;-91
2022/06/25 13:53:01;;;;;;;1.27;0.60;;;;;;;25.91;42.52;100083.16;10445030;28;20773;-85
2022/06/25 13:58:03;;;;;;;3.45;0.85;;;;;;;25.64;39.48;100087.69;10432519;28;20596;-86
2022/06/25 14:03:05;;;;;;;1.88;1.00;;;;;;;25.75;39.55;100086.44;10407713;28;20200;-86
2022/06/25 14:08:08;;;;;;;3.53;0.65;;;;;;;25.72;40.90;100086.44;10435546;28;20666;-90
2022/06/25 14:13:10;;;;;;;1.85;0.98;;;;;;;25.94;40.59;100093.00;10431671;28;20235;-86
2022/06/25 14:18:13;;;;;;;8.07;4.57;;;;;;;25.76;41.25;100096.66;10425737;28;20222;-77
2022/06/25 14:23:15;;;;;;;3.35;2.08;;;;;;;25.62;40.50;100087.28;10446820;28;20200;-83
2022/06/25 14:28:17;;;;;;;4.38;1.63;;;;;;;25.46;41.15;100084.81;10428656;28;20267;-88
2022/06/25 14:33:20;;;;;;;3.20;0.90;;;;;;;26.12;40.21;100080.22;10453326;28;20227;-87
2022/06/25 14:43:43;;;;;;;7.10;4.22;;;;;;;26.21;39.49;100079.81;10440628;28;20218;-86
2022/06/25 14:48:46;;;;;;;3.70;1.50;;;;;;;25.96;39.98;100074.13;10460287;28;20223;-86
2022/06/25 14:53:48;;;;;;;1.77;1.40;;;;;;;25.76;39.71;100070.06;10414009;28;20234;-83
2022/06/25 14:58:50;;;;;;;3.95;1.63;;;;;;;25.73;41.27;100065.16;10439639;28;20223;-85
2022/06/25 15:03:53;;;;;;;3.10;1.60;;;;;;;25.90;39.59;100052.88;10444479;28;20671;-86
2022/06/25 15:08:59;;;;;;;3.65;1.58;;;;;;;26.23;37.77;100048.66;10466418;28;20200;-86
2022/06/25 15:14:02;;;;;;;3.75;1.35;;;;;;;26.11;38.98;100054.84;10465684;28;20259;-84
2022/06/25 15:19:04;;;;;;;2.83;1.00;;;;;;;25.98;40.55;100040.16;10448493;28;20623;-86
2022/06/25 15:24:08;;;;;;;4.20;1.45;;;;;;;25.91;39.33;100043.06;10424180;28;20223;-85
2022/06/25 15:29:11;;;;;;;4.00;0.98;;;;;;;25.42;40.96;100032.50;10424488;28;20192;-84
2022/06/25 15:34:13;;;;;;;3.65;1.77;;;;;;;25.78;39.41;100034.09;10424573;28;20250;-84
2022/06/25 15:39:16;;;;;;;1.83;1.13;;;;;;;25.76;38.67;100024.25;10458334;28;20277;-89
2022/06/25 15:44:19;;;;;;;2.00;0.90;;;;;;;25.99;39.49;100021.75;10438746;28;20200;-83
2022/06/25 15:49:21;;;;;;;2.08;0.88;;;;;;;26.03;39.21;100022.56;10454043;28;20222;-84
2022/06/25 15:54:25;;;;;;;2.90;0.80;;;;;;;26.02;38.70;100015.19;10421643;28;20199;-86
2022/06/25 15:59:27;;;;;;;2.30;1.10;;;;;;;26.18;38.26;100005.31;10436412;28;20281;-88
2022/06/25 16:04:33;;;;;;;1.45;0.60;;;;;;;25.89;38.32;100002.53;10453354;28;20265;-84
2022/06/25 16:09:36;;;;;;;2.75;0.70;;;;;;;25.91;38.20;100002.13;10456083;28;20223;-89
2022/06/25 16:14:39;;;;;;;1.75;0.88;;;;;;;25.67;41.11;99998.91;10453443;28;20245;-88
2022/06/25 16:19:43;;;;;;;2.83;1.17;;;;;;;25.92;39.71;99998.84;10453147;28;20378;-89
2022/06/25 16:24:47;;;;;;;2.78;0.50;;;;;;;25.56;40.00;100003.84;10458379;28;20192;-94
2022/06/25 16:29:49;;;;;;;1.73;0.90;;;;;;;25.96;38.61;100004.56;10448073;28;20492;-82
2022/06/25 16:34:52;;;;;;;2.03;0.75;;;;;;;25.94;38.06;100007.84;10399366;28;20196;-88
2022/06/25 16:39:58;;;;;;;1.25;0.45;;;;;;;25.75;37.79;100002.56;10437919;28;20212;-91
2022/06/25 16:45:03;;;;;;;1.00;0.40;;;;;;;25.60;39.31;100009.53;10457300;28;20200;-91
2022/06/25 16:50:06;;;;;;;2.65;0.75;;;;;;;25.88;37.43;100000.91;10452888;28;20237;-88
2022/06/25 16:55:09;;;;;;;1.45;0.38;;;;;;;25.73;37.44;100010.75;10466035;28;20204;-92
2022/06/25 17:00:11;;;;;;;3.92;0.40;;;;;;;25.68;37.90;99996.88;10456286;28;20521;-84
2022/06/25 17:05:14;;;;;;;1.58;0.50;;;;;;;25.49;39.31;99998.13;10446447;28;20208;-92
2022/06/25 17:10:18;;;;;;;2.15;0.80;;;;;;;25.43;40.38;99997.72;10454159;28;20280;-83
2022/06/25 17:15:20;;;;;;;1.08;0.60;;;;;;;25.41;39.24;99991.59;10445845;28;20222;-86
2022/06/25 17:20:22;;;;;;;3.85;1.00;;;;;;;25.53;39.74;99986.66;10461033;28;20561;-82
2022/06/25 17:25:26;;;;;;;3.70;1.25;;;;;;;25.20;41.65;99991.59;10447846;28;20249;-83
2022/06/25 17:30:28;;;;;;;1.73;0.77;;;;;;;25.31;39.42;99998.13;10433420;28;20616;-86
2022/06/25 17:35:31;;;;;;;1.00;0.40;;;;;;;25.43;39.42;99986.25;10431995;28;20268;-83
2022/06/25 17:40:36;;;;;;;2.25;0.50;;;;;;;25.42;40.23;99980.97;10464061;28;20628;-84
2022/06/25 17:45:38;;;;;;;1.30;0.75;;;;;;;25.34;42.58;99985.06;10447076;28;20539;-87
2022/06/25 17:50:41;;;;;;;1.20;0.80;;;;;;;25.29;43.35;99980.59;10434886;28;20210;-83
2022/06/25 17:55:44;;;;;;;4.90;1.17;;;;;;;25.01;42.56;99981.38;10429853;28;20211;-83
2022/06/25 18:00:46;;;;;;;4.70;2.00;;;;;;;25.43;42.79;99980.53;10463184;28;20266;-83
2022/06/25 18:05:50;;;;;;;1.13;0.60;;;;;;;25.10;44.11;99981.78;10444608;28;20220;-83
2022/06/25 18:11:13;;;;;;;2.13;0.90;;;;;;;25.18;43.80;99976.03;10461656;28;20269;-84
2022/06/25 18:16:15;;;;;;;1.08;0.73;;;;;;;25.06;45.59;99980.13;10457027;28;20191;-85
2022/06/25 18:21:18;;;;;;;3.45;1.02;;;;;;;24.87;43.85;99977.69;10431780;28;20251;-83
2022/06/25 18:26:21;;;;;;;3.65;0.90;;;;;;;24.78;44.76;99985.88;10447163;28;20223;-82
2022/06/25 18:31:24;;;;;;;2.08;0.65;;;;;;;24.70;45.01;99990.75;10453550;28;20593;-82
2022/06/25 18:36:27;;;;;;;1.50;0.50;;;;;;;24.88;44.04;99996.50;10446752;28;20191;-83
2022/06/25 18:41:30;;;;;;;1.58;0.77;;;;;;;24.97;44.36;99996.91;10432149;28;20620;-83
2022/06/25 18:46:33;;;;;;;2.20;0.85;;;;;;;24.77;45.48;100002.22;10465024;28;20246;-82
2022/06/25 18:52:09;;;;;;;2.42;1.23;;;;;;;24.37;46.73;100003.31;10447881;28;20231;-80
2022/06/25 18:57:13;;;;;;;2.78;1.08;;;;;;;24.51;45.94;100000.50;10451420;28;20188;-82
2022/06/25 19:02:17;;;;;;;1.52;1.08;;;;;;;24.67;46.84;100003.00;10431463;28;20199;-83
2022/06/25 19:07:19;;;;;;;1.10;0.82;;;;;;;24.41;48.23;100007.00;10433080;28;20685;-83
2022/06/25 19:12:22;;;;;;;1.85;0.90;;;;;;;24.50;47.52;100004.59;10431064;28;20228;-82
2022/06/25 19:17:24;;;;;;;2.13;0.90;;;;;;;24.18;47.99;100015.09;10445181;28;20725;-83
2022/06/25 19:22:28;;;;;;;1.23;0.93;;;;;;;24.04;48.60;100022.38;10467134;28;20261;-85
2022/06/25 19:27:31;;;;;;;3.63;1.27;;;;;;;23.88;49.45;100021.84;10410421;28;20205;-84
2022/06/25 19:32:35;;;;;;;2.20;1.00;;;;;;;23.93;49.96;100026.41;10432673;28;20492;-82
2022/06/25 19:37:37;;;;;;;1.63;1.25;;;;;;;24.03;48.83;100023.59;10422107;28;20257;-83
2022/06/25 19:42:40;;;;;;;2.85;1.40;;;;;;;23.98;48.98;100029.72;10453763;28;20296;-84
2022/06/25 19:47:43;;;;;;;2.85;1.67;;;;;;;23.67;52.24;100041.72;10452745;28;20195;-83
2022/06/25 19:52:47;;;;;;;3.40;1.67;;;;;;;23.58;50.73;100044.13;10454832;28;20192;-84
2022/06/25 19:57:50;;;;;;;3.28;1.90;;;;;;;23.46;51.72;100050.16;10454745;28;20266;-84
2022/06/25 20:02:52;;;;;;;5.82;1.88;;;;;;;23.19;51.28;100056.03;10471408;28;20539;-87
2022/06/25 20:07:54;;;;;;;5.32;3.15;;;;;;;23.35;52.64;100049.25;10396511;28;20563;-85
2022/06/25 20:12:57;;;;;;;3.60;1.80;;;;;;;23.38;52.19;100051.31;10454699;28;20220;-87
2022/06/25 20:17:59;;;;;;;7.57;1.92;;;;;;;22.90;55.30;100048.44;10452677;28;20212;-82
2022/06/25 20:23:04;;;;;;;4.30;1.90;;;;;;;22.83;55.04;100043.50;10421494;28;20204;-83
2022/06/25 20:28:06;;;;;;;7.55;3.10;;;;;;;22.66;57.30;100043.28;10425829;28;20262;-82
2022/06/25 20:33:08;;;;;;;4.18;2.63;;;;;;;22.72;56.54;100036.84;10452760;28;20196;-82
2022/06/25 20:38:12;;;;;;;2.92;2.28;;;;;;;22.57;57.70;100041.56;10469428;28;20253;-84
2022/06/25 20:43:14;;;;;;;3.90;2.25;;;;;;;22.64;56.64;100040.84;10452635;28;20241;-83
2022/06/25 20:48:17;;;;;;;4.47;2.33;;;;;;;22.61;59.19;100048.13;10444823;28;20496;-83
2022/06/25 20:53:23;;;;;;;2.58;2.30;;;;;;;22.75;56.69;100047.47;10455694;28;20657;-84
2022/06/25 20:58:25;;;;;;;8.50;2.42;;;;;;;22.60;57.87;100055.00;10438460;28;20203;-84
2022/06/25 21:08:50;;;;;;;6.82;3.22;;;;;;;22.83;56.85;100048.38;10457120;28;20193;-82
2022/06/25 21:13:55;;;;;;;5.03;2.90;;;;;;;22.40;59.79;100053.56;10415309;28;20361;-83
2022/06/25 21:18:57;;;;;;;2.85;2.55;;;;;;;22.39;59.74;100049.06;10437399;28;20690;-83
2022/06/25 21:24:00;;;;;;;4.07;2.20;;;;;;;22.24;59.85;100050.13;10455017;28;20188;-86
2022/06/25 21:29:02;;;;;;;2.67;2.17;;;;;;;22.30;58.32;100042.06;10444898;28;20489;-82
2022/06/25 21:34:05;;;;;;;6.63;2.67;;;;;;;22.21;58.87;100048.03;10434929;28;20250;-83
2022/06/25 21:39:08;;;;;;;10.80;6.32;;;;;;;22.23;60.15;100046.44;10402083;28;20224;-84
2022/06/25 21:44:11;;;;;;;6.35;4.05;;;;;;;22.10;59.72;100044.22;10450065;28;20199;-84
2022/06/25 21:49:13;;;;;;;4.53;2.50;;;;;;;22.12;59.52;100053.22;10460055;28;20195;-81
2022/06/25 21:54:16;;;;;;;4.97;2.85;;;;;;;22.19;59.53;100041.91;10434771;28;20254;-82
2022/06/25 21:59:18;;;;;;;5.40;2.65;;;;;;;22.01;60.30;100040.88;10467185;28;20227;-81
2022/06/25 22:04:21;;;;;;;6.10;2.75;;;;;;;21.91;60.64;100040.31;10450634;28;20216;-83
2022/06/25 22:09:23;;;;;;;5.38;1.98;;;;;;;21.93;59.81;100039.94;10447831;28;20273;-82
2022/06/25 22:14:26;;;;;;;3.58;2.28;;;;;;;22.24;57.87;100044.41;10450089;28;20481;-83
2022/06/25 22:19:28;;;;;;;3.60;1.80;;;;;;;21.96;58.03;100044.03;10450405;28;20603;-82
2022/06/25 22:24:30;;;;;;;6.13;2.33;;;;;;;22.28;57.44;100042.44;10448368;28;20231;-83
2022/06/25 22:29:32;;;;;;;4.78;2.30;;;;;;;22.15;58.22;100041.06;10442539;28;20249;-81
2022/06/25 22:34:35;;;;;;;5.75;2.33;;;;;;;22.12;58.48;100047.53;10417531;28;20222;-83
2022/06/25 22:39:37;;;;;;;3.08;2.25;;;;;;;22.23;58.49;100045.63;10467909;28;20247;-83
2022/06/25 22:44:39;;;;;;;6.20;2.53;;;;;;;22.15;58.54;100041.06;10434219;28;20254;-82
2022/06/25 22:49:42;;;;;;;3.88;2.15;;;;;;;22.26;57.77;100048.53;10434554;28;20184;-81
2022/06/25 22:54:44;;;;;;;3.78;2.63;;;;;;;22.11;57.69;100043.03;10467041;28;20192;-82
2022/06/25 22:59:47;;;;;;;2.22;1.90;;;;;;;22.03;57.41;100041.31;10450773;28;20465;-83
2022/06/25 23:04:49;;;;;;;2.45;2.25;;;;;;;22.04;57.42;100034.41;10448150;28;20253;-82
2022/06/25 23:09:53;;;;;;;6.35;2.58;;;;;;;21.79;58.25;100032.03;10435022;28;20281;-83
2022/06/25 23:14:55;;;;;;;3.05;2.30;;;;;;;21.82;58.50;100022.69;10474461;28;20201;-82
2022/06/25 23:19:58;;;;;;;2.65;2.35;;;;;;;21.76;58.20;100015.72;10471791;28;20258;-82
2022/06/25 23:25:00;;;;;;;4.05;2.20;;;;;;;21.76;58.44;100017.72;10454517;28;20196;-82
2022/06/25 23:30:05;;;;;;;3.08;2.38;;;;;;;21.81;58.00;100015.34;10458314;28;20539;-82
2022/06/25 23:35:07;;;;;;;4.25;2.20;;;;;;;21.63;58.65;100016.31;10459755;28;20222;-83
2022/06/25 23:40:10;;;;;;;6.93;2.63;;;;;;;21.71;58.78;100021.72;10457360;28;20533;-82
2022/06/25 23:45:12;;;;;;;8.93;3.15;;;;;;;21.68;58.37;100022.50;10457025;28;20249;-83
2022/06/25 23:50:15;;;;;;;9.68;2.95;;;;;;;21.50;58.75;100018.59;10440031;28;20250;-82